createdAt,value
2018-01-17T00:00:02.986Z,1.06
2018-01-17T00:00:07.015Z,1.07
2018-01-17T00:00:10.716Z,1.06
2018-01-17T00:00:14.662Z,1.05
2018-01-17T00:00:18.696Z,1.06
2018-01-17T00:00:22.616Z,1.06
2018-01-17T00:00:26.634Z,1.06
2018-01-17T00:00:30.556Z,1.06
2018-01-17T00:00:34.469Z,1.06
2018-01-17T00:00:38.274Z,1.07
2018-01-17T00:00:42.084Z,1.07
2018-01-17T00:00:46.101Z,1.07
2018-01-17T00:00:50.008Z,1.06
2018-01-17T00:00:54.024Z,1.07
2018-01-17T00:00:57.952Z,1.07
2018-01-17T00:01:02.243Z,1.07
2018-01-17T00:01:06.059Z,1.07
2018-01-17T00:01:10.098Z,1.06
2018-01-17T00:01:14.340Z,1.07
2018-01-17T00:01:18.364Z,1.07
2018-01-17T00:01:22.380Z,1.07
2018-01-17T00:01:26.402Z,1.08
2018-01-17T00:01:30.323Z,1.07
2018-01-17T00:01:34.334Z,1.08
2018-01-17T00:01:38.455Z,1.08
2018-01-17T00:01:42.380Z,1.07
2018-01-17T00:01:46.291Z,1.07
2018-01-17T00:01:50.102Z,1.08
2018-01-17T00:01:53.923Z,1.07
2018-01-17T00:01:57.739Z,1.07
2018-01-17T00:02:01.860Z,1.08
2018-01-17T00:02:05.978Z,1.07
2018-01-17T00:02:10.004Z,1.08
2018-01-17T00:02:14.035Z,1.08
2018-01-17T00:02:18.271Z,1.08
2018-01-17T00:02:22.296Z,1.08
2018-01-17T00:02:26.111Z,1.08
2018-01-17T00:02:30.124Z,1.08
2018-01-17T00:02:34.144Z,1.09
2018-01-17T00:02:38.058Z,1.08
2018-01-17T00:02:42.083Z,1.08
2018-01-17T00:02:46.120Z,1.08
2018-01-17T00:02:50.257Z,1.09
2018-01-17T00:02:54.194Z,1.09
2018-01-17T00:02:58.111Z,1.09
2018-01-17T00:03:02.026Z,1.09
2018-01-17T00:03:05.945Z,1.09
2018-01-17T00:03:09.865Z,1.08
2018-01-17T00:03:14.140Z,1.08
2018-01-17T00:03:18.165Z,1.08
2018-01-17T00:03:22.203Z,1.09
2018-01-17T00:03:26.012Z,1.09
2018-01-17T00:03:29.831Z,1.09
2018-01-17T00:03:33.653Z,1.08
2018-01-17T00:03:37.774Z,1.09
2018-01-17T00:03:41.594Z,1.08
2018-01-17T00:03:45.516Z,1.08
2018-01-17T00:03:49.440Z,1.09
2018-01-17T00:03:53.680Z,1.09
2018-01-17T00:03:57.502Z,1.09
2018-01-17T00:04:01.419Z,1.09
2018-01-17T00:04:05.846Z,1.1
2018-01-17T00:04:09.655Z,1.11
2018-01-17T00:04:13.565Z,1.1
2018-01-17T00:04:17.693Z,1.1
2018-01-17T00:04:21.615Z,1.1
2018-01-17T00:04:25.642Z,1.11
2018-01-17T00:04:29.879Z,1.11
2018-01-17T00:04:34.010Z,1.1
2018-01-17T00:04:38.138Z,1.1
2018-01-17T00:04:41.965Z,1.1
2018-01-17T00:04:45.881Z,1.1
2018-01-17T00:04:49.602Z,1.1
2018-01-17T00:04:53.529Z,1.1
2018-01-17T00:04:57.339Z,1.11
2018-01-17T00:05:01.361Z,1.11
2018-01-17T00:05:05.386Z,1.11
2018-01-17T00:05:09.298Z,1.11
2018-01-17T00:05:13.430Z,1.12
2018-01-17T00:05:17.665Z,1.11
2018-01-17T00:05:21.472Z,1.12
2018-01-17T00:05:25.593Z,1.12
2018-01-17T00:05:29.511Z,1.12
2018-01-17T00:05:33.448Z,1.11
2018-01-17T00:05:37.260Z,1.12
2018-01-17T00:05:41.178Z,1.12
2018-01-17T00:05:45.399Z,1.12
2018-01-17T00:05:49.427Z,1.11
2018-01-17T00:05:53.351Z,1.11
2018-01-17T00:05:57.702Z,1.13
2018-01-17T00:06:01.538Z,1.12
2018-01-17T00:06:05.462Z,1.12
2018-01-17T00:06:09.262Z,1.13
2018-01-17T00:06:13.306Z,1.13
2018-01-17T00:06:17.542Z,1.12
2018-01-17T00:06:21.562Z,1.12
2018-01-17T00:06:25.574Z,1.12
2018-01-17T00:06:29.705Z,1.13
2018-01-17T00:06:33.932Z,1.13
2018-01-17T00:06:38.060Z,1.13
2018-01-17T00:06:41.973Z,1.14
2018-01-17T00:06:45.785Z,1.13
2018-01-17T00:06:49.604Z,1.14
2018-01-17T00:06:53.524Z,1.13
2018-01-17T00:06:57.337Z,1.13
2018-01-17T00:07:01.151Z,1.14
2018-01-17T00:07:04.958Z,1.14
2018-01-17T00:07:08.889Z,1.13
2018-01-17T00:07:13.110Z,1.13
2018-01-17T00:07:17.019Z,1.13
2018-01-17T00:07:20.945Z,1.12
2018-01-17T00:07:24.850Z,1.14
2018-01-17T00:07:28.759Z,1.13
2018-01-17T00:07:32.777Z,1.13
2018-01-17T00:07:36.798Z,1.14
2018-01-17T00:07:40.729Z,1.14
2018-01-17T00:07:44.545Z,1.14
2018-01-17T00:07:48.456Z,1.14
2018-01-17T00:07:52.274Z,1.13
2018-01-17T00:07:56.104Z,1.14
2018-01-17T00:08:00.040Z,1.13
2018-01-17T00:08:04.169Z,1.14
2018-01-17T00:08:08.195Z,1.15
2018-01-17T00:08:12.217Z,1.14
2018-01-17T00:08:16.340Z,1.15
2018-01-17T00:08:20.348Z,1.16
2018-01-17T00:08:24.262Z,1.15
2018-01-17T00:08:28.390Z,1.14
2018-01-17T00:08:32.299Z,1.15
2018-01-17T00:08:36.444Z,1.15
2018-01-17T00:08:40.251Z,1.14
2018-01-17T00:08:44.271Z,1.14
2018-01-17T00:08:48.301Z,1.16
2018-01-17T00:08:52.126Z,1.15
2018-01-17T00:08:56.151Z,1.16
2018-01-17T00:09:00.171Z,1.16
2018-01-17T00:09:04.196Z,1.15
2018-01-17T00:09:08.129Z,1.15
2018-01-17T00:09:12.264Z,1.15
2018-01-17T00:09:16.392Z,1.14
2018-01-17T00:09:20.201Z,1.15
2018-01-17T00:09:24.228Z,1.14
2018-01-17T00:09:28.471Z,1.16
2018-01-17T00:09:32.509Z,1.16
2018-01-17T00:09:36.643Z,1.16
2018-01-17T00:09:40.555Z,1.15
2018-01-17T00:09:44.368Z,1.16
2018-01-17T00:09:48.071Z,1.16
2018-01-17T00:09:52.000Z,1.15
2018-01-17T00:09:56.024Z,1.16
2018-01-17T00:10:00.069Z,1.15
2018-01-17T00:10:04.439Z,1.17
2018-01-17T00:10:08.271Z,1.16
2018-01-17T00:10:12.313Z,1.16
2018-01-17T00:10:16.537Z,1.17
2018-01-17T00:10:20.687Z,1.16
2018-01-17T00:10:24.834Z,1.17
2018-01-17T00:10:28.764Z,1.17
2018-01-17T00:10:32.782Z,1.17
2018-01-17T00:10:36.599Z,1.16
2018-01-17T00:10:40.311Z,1.17
2018-01-17T00:10:44.542Z,1.17
2018-01-17T00:10:48.258Z,1.16
2018-01-17T00:10:52.088Z,1.16
2018-01-17T00:10:56.108Z,1.17
2018-01-17T00:11:00.038Z,1.17
2018-01-17T00:11:04.056Z,1.17
2018-01-17T00:11:07.868Z,1.17
2018-01-17T00:11:11.989Z,1.18
2018-01-17T00:11:15.801Z,1.18
2018-01-17T00:11:19.718Z,1.17
2018-01-17T00:11:23.636Z,1.17
2018-01-17T00:11:27.458Z,1.17
2018-01-17T00:11:31.495Z,1.18
2018-01-17T00:11:35.299Z,1.17
2018-01-17T00:11:39.023Z,1.17
2018-01-17T00:11:43.061Z,1.18
2018-01-17T00:11:47.100Z,1.18
2018-01-17T00:11:51.113Z,1.18
2018-01-17T00:11:55.034Z,1.17
2018-01-17T00:11:58.838Z,1.18
2018-01-17T00:12:02.976Z,1.18
2018-01-17T00:12:06.904Z,1.17
2018-01-17T00:12:11.027Z,1.17
2018-01-17T00:12:15.154Z,1.17
2018-01-17T00:12:18.959Z,1.17
2018-01-17T00:12:22.983Z,1.18
2018-01-17T00:12:26.893Z,1.18
2018-01-17T00:12:30.931Z,1.18
2018-01-17T00:12:35.055Z,1.17
2018-01-17T00:12:39.177Z,1.18
2018-01-17T00:12:43.316Z,1.19
2018-01-17T00:12:47.441Z,1.19
2018-01-17T00:12:51.250Z,1.18
2018-01-17T00:12:55.276Z,1.2
2018-01-17T00:12:59.199Z,1.19
2018-01-17T00:13:03.368Z,1.19
2018-01-17T00:13:07.387Z,1.19
2018-01-17T00:13:11.294Z,1.19
2018-01-17T00:13:15.533Z,1.18
2018-01-17T00:13:19.456Z,1.19
2018-01-17T00:13:23.478Z,1.18
2018-01-17T00:13:27.502Z,1.19
2018-01-17T00:13:31.746Z,1.19
2018-01-17T00:13:35.906Z,1.19
2018-01-17T00:13:39.833Z,1.19
2018-01-17T00:13:43.974Z,1.19
2018-01-17T00:13:47.793Z,1.2
2018-01-17T00:13:51.938Z,1.19
2018-01-17T00:13:55.975Z,1.19
2018-01-17T00:13:59.785Z,1.2
2018-01-17T00:14:04.018Z,1.2
2018-01-17T00:14:07.830Z,1.2
2018-01-17T00:14:11.859Z,1.2
2018-01-17T00:14:16.244Z,1.2
2018-01-17T00:14:20.264Z,1.19
2018-01-17T00:14:24.496Z,1.2
2018-01-17T00:14:28.407Z,1.21
2018-01-17T00:14:32.436Z,1.2
2018-01-17T00:14:36.473Z,1.2
2018-01-17T00:14:40.282Z,1.19
2018-01-17T00:14:44.444Z,1.2
2018-01-17T00:14:48.364Z,1.21
2018-01-17T00:14:52.086Z,1.21
2018-01-17T00:14:55.911Z,1.21
2018-01-17T00:14:59.930Z,1.21
2018-01-17T00:15:04.104Z,1.21
2018-01-17T00:15:08.119Z,1.21
2018-01-17T00:15:12.460Z,1.22
2018-01-17T00:15:16.267Z,1.22
2018-01-17T00:15:20.181Z,1.21
2018-01-17T00:15:24.123Z,1.22
2018-01-17T00:15:28.049Z,1.22
2018-01-17T00:15:32.279Z,1.22
2018-01-17T00:15:36.298Z,1.22
2018-01-17T00:15:40.221Z,1.22
2018-01-17T00:15:44.351Z,1.22
2018-01-17T00:15:48.259Z,1.22
2018-01-17T00:15:52.182Z,1.22
2018-01-17T00:15:55.993Z,1.22
2018-01-17T00:16:00.128Z,1.23
2018-01-17T00:16:04.049Z,1.22
2018-01-17T00:16:07.752Z,1.21
2018-01-17T00:16:11.462Z,1.22
2018-01-17T00:16:15.374Z,1.22
2018-01-17T00:16:19.185Z,1.22
2018-01-17T00:16:23.112Z,1.22
2018-01-17T00:16:27.051Z,1.22
2018-01-17T00:16:31.071Z,1.22
2018-01-17T00:16:35.097Z,1.22
2018-01-17T00:16:39.225Z,1.22
2018-01-17T00:16:43.243Z,1.23
2018-01-17T00:16:47.056Z,1.22
2018-01-17T00:16:50.857Z,1.22
2018-01-17T00:16:54.776Z,1.22
2018-01-17T00:16:58.584Z,1.23
2018-01-17T00:17:02.554Z,1.22
2018-01-17T00:17:06.476Z,1.23
2018-01-17T00:17:10.192Z,1.23
2018-01-17T00:17:14.113Z,1.23
2018-01-17T00:17:18.244Z,1.22
2018-01-17T00:17:22.436Z,1.24
2018-01-17T00:17:26.363Z,1.23
2018-01-17T00:17:30.275Z,1.24
2018-01-17T00:17:34.391Z,1.24
2018-01-17T00:17:38.314Z,1.24
2018-01-17T00:17:42.230Z,1.24
2018-01-17T00:17:46.259Z,1.25
2018-01-17T00:17:49.976Z,1.25
2018-01-17T00:17:53.678Z,1.24
2018-01-17T00:17:57.596Z,1.24
2018-01-17T00:18:01.529Z,1.25
2018-01-17T00:18:05.337Z,1.24
2018-01-17T00:18:09.146Z,1.25
2018-01-17T00:18:13.168Z,1.24
2018-01-17T00:18:17.090Z,1.25
2018-01-17T00:18:20.903Z,1.24
2018-01-17T00:18:24.721Z,1.25
2018-01-17T00:18:28.446Z,1.25
2018-01-17T00:18:32.365Z,1.26
2018-01-17T00:18:36.187Z,1.26
2018-01-17T00:18:40.104Z,1.26
2018-01-17T00:18:44.018Z,1.26
2018-01-17T00:18:47.820Z,1.26
2018-01-17T00:18:51.738Z,1.26
2018-01-17T00:18:55.639Z,1.26
2018-01-17T00:18:59.554Z,1.27
2018-01-17T00:19:03.743Z,1.26
2018-01-17T00:19:07.957Z,1.27
2018-01-17T00:19:11.866Z,1.27
2018-01-17T00:19:15.984Z,1.27
2018-01-17T00:19:19.675Z,1.27
2018-01-17T00:19:23.591Z,1.27
2018-01-17T00:19:27.287Z,1.27
2018-01-17T00:19:31.401Z,1.27
2018-01-17T00:19:35.197Z,1.27
2018-01-17T00:19:38.888Z,1.27
2018-01-17T00:19:42.704Z,1.27
2018-01-17T00:19:46.830Z,1.27
2018-01-17T00:19:50.850Z,1.27
2018-01-17T00:19:55.096Z,1.28
2018-01-17T00:19:59.005Z,1.27
2018-01-17T00:20:03.126Z,1.27
2018-01-17T00:20:07.050Z,1.28
2018-01-17T00:20:11.170Z,1.28
2018-01-17T00:20:15.176Z,1.28
2018-01-17T00:20:19.199Z,1.28
2018-01-17T00:20:23.012Z,1.28
2018-01-17T00:20:26.827Z,1.28
2018-01-17T00:20:30.845Z,1.27
2018-01-17T00:20:34.750Z,1.29
2018-01-17T00:20:38.441Z,1.28
2018-01-17T00:20:42.354Z,1.3
2018-01-17T00:20:46.261Z,1.29
2018-01-17T00:20:50.168Z,1.29
2018-01-17T00:20:53.975Z,1.28
2018-01-17T00:20:57.786Z,1.29
2018-01-17T00:21:01.824Z,1.28
2018-01-17T00:21:05.749Z,1.29
2018-01-17T00:21:09.444Z,1.29
2018-01-17T00:21:13.358Z,1.29
2018-01-17T00:21:17.363Z,1.3
2018-01-17T00:21:21.374Z,1.29
2018-01-17T00:21:25.387Z,1.31
2018-01-17T00:21:29.189Z,1.31
2018-01-17T00:21:32.974Z,1.31
2018-01-17T00:21:37.096Z,1.31
2018-01-17T00:21:40.919Z,1.3
2018-01-17T00:21:44.829Z,1.31
2018-01-17T00:21:48.672Z,1.3
2018-01-17T00:21:52.580Z,1.31
2018-01-17T00:21:56.609Z,1.31
2018-01-17T00:22:00.619Z,1.31
2018-01-17T00:22:04.522Z,1.3
2018-01-17T00:22:08.568Z,1.32
2018-01-17T00:22:12.372Z,1.31
2018-01-17T00:22:16.399Z,1.32
2018-01-17T00:22:20.420Z,1.32
2018-01-17T00:22:24.436Z,1.32
2018-01-17T00:22:28.363Z,1.32
2018-01-17T00:22:32.169Z,1.32
2018-01-17T00:22:36.193Z,1.32
2018-01-17T00:22:39.998Z,1.32
2018-01-17T00:22:44.242Z,1.33
2018-01-17T00:22:48.151Z,1.33
2018-01-17T00:22:51.957Z,1.33
2018-01-17T00:22:55.991Z,1.33
2018-01-17T00:23:00.106Z,1.33
2018-01-17T00:23:04.169Z,1.32
2018-01-17T00:23:08.089Z,1.33
2018-01-17T00:23:11.983Z,1.33
2018-01-17T00:23:15.878Z,1.33
2018-01-17T00:23:20.115Z,1.33
2018-01-17T00:23:24.017Z,1.32
2018-01-17T00:23:28.161Z,1.33
2018-01-17T00:23:32.302Z,1.33
2018-01-17T00:23:36.516Z,1.34
2018-01-17T00:23:40.436Z,1.34
2018-01-17T00:23:44.343Z,1.35
2018-01-17T00:23:48.254Z,1.35
2018-01-17T00:23:52.172Z,1.34
2018-01-17T00:23:56.203Z,1.34
2018-01-17T00:24:00.117Z,1.34
2018-01-17T00:24:04.479Z,1.35
2018-01-17T00:24:08.498Z,1.34
2018-01-17T00:24:12.731Z,1.35
2018-01-17T00:24:16.736Z,1.35
2018-01-17T00:24:20.842Z,1.35
2018-01-17T00:24:24.849Z,1.34
2018-01-17T00:24:28.671Z,1.35
2018-01-17T00:24:32.576Z,1.35
2018-01-17T00:24:36.388Z,1.35
2018-01-17T00:24:40.305Z,1.36
2018-01-17T00:24:44.203Z,1.36
2018-01-17T00:24:48.103Z,1.36
2018-01-17T00:24:52.006Z,1.35
2018-01-17T00:24:55.931Z,1.35
2018-01-17T00:24:59.737Z,1.35
2018-01-17T00:25:03.802Z,1.36
2018-01-17T00:25:07.625Z,1.37
2018-01-17T00:25:11.652Z,1.35
2018-01-17T00:25:15.668Z,1.36
2018-01-17T00:25:19.470Z,1.36
2018-01-17T00:25:23.481Z,1.36
2018-01-17T00:25:27.630Z,1.36
2018-01-17T00:25:31.743Z,1.36
2018-01-17T00:25:35.710Z,1.36
2018-01-17T00:25:39.723Z,1.37
2018-01-17T00:25:43.835Z,1.37
2018-01-17T00:25:47.553Z,1.36
2018-01-17T00:25:51.361Z,1.36
2018-01-17T00:25:55.167Z,1.36
2018-01-17T00:25:59.184Z,1.37
2018-01-17T00:26:03.409Z,1.37
2018-01-17T00:26:07.209Z,1.37
2018-01-17T00:26:11.018Z,1.36
2018-01-17T00:26:14.934Z,1.37
2018-01-17T00:26:18.830Z,1.37
2018-01-17T00:26:22.868Z,1.37
2018-01-17T00:26:26.997Z,1.38
2018-01-17T00:26:31.021Z,1.37
2018-01-17T00:26:34.954Z,1.37
2018-01-17T00:26:38.867Z,1.37
2018-01-17T00:26:42.882Z,1.37
2018-01-17T00:26:47.113Z,1.37
2018-01-17T00:26:50.924Z,1.37
2018-01-17T00:26:54.843Z,1.37
2018-01-17T00:26:58.668Z,1.38
2018-01-17T00:27:02.790Z,1.38
2018-01-17T00:27:06.691Z,1.38
2018-01-17T00:27:10.500Z,1.37
2018-01-17T00:27:14.507Z,1.38
2018-01-17T00:27:18.728Z,1.38
2018-01-17T00:27:22.535Z,1.38
2018-01-17T00:27:26.658Z,1.38
2018-01-17T00:27:30.462Z,1.39
2018-01-17T00:27:34.488Z,1.38
2018-01-17T00:27:38.680Z,1.39
2018-01-17T00:27:42.494Z,1.38
2018-01-17T00:27:46.408Z,1.38
2018-01-17T00:27:50.439Z,1.38
2018-01-17T00:27:54.351Z,1.39
2018-01-17T00:27:58.268Z,1.38
2018-01-17T00:28:02.441Z,1.38
2018-01-17T00:28:06.453Z,1.39
2018-01-17T00:28:10.460Z,1.39
2018-01-17T00:28:14.574Z,1.39
2018-01-17T00:28:18.361Z,1.39
2018-01-17T00:28:22.380Z,1.4
2018-01-17T00:28:26.402Z,1.39
2018-01-17T00:28:30.312Z,1.4
2018-01-17T00:28:34.239Z,1.4
2018-01-17T00:28:38.154Z,1.4
2018-01-17T00:28:41.947Z,1.4
2018-01-17T00:28:45.865Z,1.4
2018-01-17T00:28:49.776Z,1.41
2018-01-17T00:28:53.588Z,1.41
2018-01-17T00:28:57.388Z,1.42
2018-01-17T00:29:01.425Z,1.41
2018-01-17T00:29:05.688Z,1.4
2018-01-17T00:29:09.493Z,1.42
2018-01-17T00:29:13.499Z,1.43
2018-01-17T00:29:17.753Z,1.42
2018-01-17T00:29:21.877Z,1.41
2018-01-17T00:29:25.878Z,1.43
2018-01-17T00:29:29.778Z,1.42
2018-01-17T00:29:33.797Z,1.43
2018-01-17T00:29:37.702Z,1.43
2018-01-17T00:29:41.528Z,1.43
2018-01-17T00:29:45.655Z,1.43
2018-01-17T00:29:49.459Z,1.43
2018-01-17T00:29:53.476Z,1.43
2018-01-17T00:29:57.374Z,1.42
2018-01-17T00:30:01.410Z,1.43
2018-01-17T00:30:05.545Z,1.45
2018-01-17T00:30:09.684Z,1.43
2018-01-17T00:30:13.612Z,1.44
2018-01-17T00:30:17.420Z,1.43
2018-01-17T00:30:21.445Z,1.43
2018-01-17T00:30:25.368Z,1.43
2018-01-17T00:30:29.284Z,1.44
2018-01-17T00:30:33.418Z,1.44
2018-01-17T00:30:37.436Z,1.45
2018-01-17T00:30:41.348Z,1.44
2018-01-17T00:30:45.148Z,1.45
2018-01-17T00:30:48.960Z,1.44
2018-01-17T00:30:52.748Z,1.46
2018-01-17T00:30:56.771Z,1.45
2018-01-17T00:31:00.464Z,1.44
2018-01-17T00:31:04.374Z,1.45
2018-01-17T00:31:08.479Z,1.45
2018-01-17T00:31:12.705Z,1.45
2018-01-17T00:31:16.626Z,1.46
2018-01-17T00:31:20.537Z,1.45
2018-01-17T00:31:24.538Z,1.45
2018-01-17T00:31:28.679Z,1.46
2018-01-17T00:31:32.588Z,1.46
2018-01-17T00:31:36.499Z,1.47
2018-01-17T00:31:40.392Z,1.46
2018-01-17T00:31:44.511Z,1.46
2018-01-17T00:31:48.427Z,1.47
2018-01-17T00:31:52.446Z,1.47
2018-01-17T00:31:56.563Z,1.47
2018-01-17T00:32:00.489Z,1.46
2018-01-17T00:32:04.352Z,1.48
2018-01-17T00:32:08.145Z,1.47
2018-01-17T00:32:11.830Z,1.47
2018-01-17T00:32:15.739Z,1.47
2018-01-17T00:32:19.423Z,1.47
2018-01-17T00:32:23.241Z,1.48
2018-01-17T00:32:27.350Z,1.49
2018-01-17T00:32:31.485Z,1.48
2018-01-17T00:32:35.426Z,1.48
2018-01-17T00:32:39.347Z,1.49
2018-01-17T00:32:43.493Z,1.5
2018-01-17T00:32:47.200Z,1.5
2018-01-17T00:32:51.234Z,1.5
2018-01-17T00:32:54.951Z,1.5
2018-01-17T00:32:59.079Z,1.49
2018-01-17T00:33:03.153Z,1.5
2018-01-17T00:33:07.268Z,1.49
2018-01-17T00:33:10.966Z,1.51
2018-01-17T00:33:15.087Z,1.51
2018-01-17T00:33:18.989Z,1.51
2018-01-17T00:33:22.812Z,1.51
2018-01-17T00:33:26.818Z,1.5
2018-01-17T00:33:30.740Z,1.52
2018-01-17T00:33:34.666Z,1.52
2018-01-17T00:33:38.689Z,1.52
2018-01-17T00:33:42.703Z,1.51
2018-01-17T00:33:46.821Z,1.52
2018-01-17T00:33:50.744Z,1.53
2018-01-17T00:33:54.857Z,1.52
2018-01-17T00:33:58.784Z,1.53
2018-01-17T00:34:02.707Z,1.53
2018-01-17T00:34:06.629Z,1.53
2018-01-17T00:34:10.653Z,1.53
2018-01-17T00:34:14.570Z,1.54
2018-01-17T00:34:18.698Z,1.55
2018-01-17T00:34:22.778Z,1.55
2018-01-17T00:34:26.694Z,1.55
2018-01-17T00:34:30.509Z,1.55
2018-01-17T00:34:34.403Z,1.55
2018-01-17T00:34:38.217Z,1.55
2018-01-17T00:34:42.462Z,1.57
2018-01-17T00:34:46.166Z,1.56
2018-01-17T00:34:49.977Z,1.58
2018-01-17T00:34:53.903Z,1.56
2018-01-17T00:34:57.802Z,1.57
2018-01-17T00:35:01.621Z,1.57
2018-01-17T00:35:05.806Z,1.58
2018-01-17T00:35:09.616Z,1.58
2018-01-17T00:35:13.742Z,1.57
2018-01-17T00:35:17.658Z,1.59
2018-01-17T00:35:21.560Z,1.58
2018-01-17T00:35:25.464Z,1.58
2018-01-17T00:35:29.281Z,1.58
2018-01-17T00:35:33.390Z,1.6
2018-01-17T00:35:37.407Z,1.59
2018-01-17T00:35:41.423Z,1.6
2018-01-17T00:35:45.226Z,1.59
2018-01-17T00:35:49.032Z,1.59
2018-01-17T00:35:52.830Z,1.6
2018-01-17T00:35:56.960Z,1.6
2018-01-17T00:36:00.768Z,1.59
2018-01-17T00:36:04.797Z,1.6
2018-01-17T00:36:08.845Z,1.61
2018-01-17T00:36:12.857Z,1.61
2018-01-17T00:36:16.993Z,1.61
2018-01-17T00:36:21.006Z,1.62
2018-01-17T00:36:24.811Z,1.61
2018-01-17T00:36:28.714Z,1.62
2018-01-17T00:36:32.530Z,1.63
2018-01-17T00:36:36.650Z,1.62
2018-01-17T00:36:40.555Z,1.63
2018-01-17T00:36:44.570Z,1.63
2018-01-17T00:36:48.816Z,1.63
2018-01-17T00:36:52.633Z,1.64
2018-01-17T00:36:56.645Z,1.64
2018-01-17T00:37:00.656Z,1.64
2018-01-17T00:37:04.787Z,1.63
2018-01-17T00:37:08.829Z,1.64
2018-01-17T00:37:12.846Z,1.64
2018-01-17T00:37:16.975Z,1.64
2018-01-17T00:37:21.210Z,1.65
2018-01-17T00:37:25.219Z,1.65
2018-01-17T00:37:29.350Z,1.66
2018-01-17T00:37:33.367Z,1.66
2018-01-17T00:37:37.288Z,1.66
2018-01-17T00:37:41.192Z,1.65
2018-01-17T00:37:45.004Z,1.66
2018-01-17T00:37:48.819Z,1.66
2018-01-17T00:37:52.726Z,1.66
2018-01-17T00:37:56.754Z,1.66
2018-01-17T00:38:00.552Z,1.68
2018-01-17T00:38:04.644Z,1.66
2018-01-17T00:38:08.433Z,1.67
2018-01-17T00:38:12.248Z,1.68
2018-01-17T00:38:16.155Z,1.67
2018-01-17T00:38:20.061Z,1.68
2018-01-17T00:38:24.090Z,1.69
2018-01-17T00:38:28.217Z,1.68
2018-01-17T00:38:32.436Z,1.68
2018-01-17T00:38:36.346Z,1.68
2018-01-17T00:38:40.150Z,1.68
2018-01-17T00:38:44.054Z,1.69
2018-01-17T00:38:47.957Z,1.69
2018-01-17T00:38:52.140Z,1.7
2018-01-17T00:38:55.961Z,1.7
2018-01-17T00:38:59.974Z,1.7
2018-01-17T00:39:04.197Z,1.69
2018-01-17T00:39:08.013Z,1.71
2018-01-17T00:39:11.812Z,1.71
2018-01-17T00:39:15.795Z,1.7
2018-01-17T00:39:19.713Z,1.71
2018-01-17T00:39:23.624Z,1.71
2018-01-17T00:39:27.426Z,1.71
2018-01-17T00:39:31.330Z,1.71
2018-01-17T00:39:35.338Z,1.72
2018-01-17T00:39:39.336Z,1.72
2018-01-17T00:39:43.357Z,1.72
2018-01-17T00:39:47.381Z,1.72
2018-01-17T00:39:51.281Z,1.72
2018-01-17T00:39:55.469Z,1.72
2018-01-17T00:39:59.384Z,1.73
2018-01-17T00:40:03.237Z,1.73
2018-01-17T00:40:07.033Z,1.74
2018-01-17T00:40:10.842Z,1.73
2018-01-17T00:40:14.557Z,1.74
2018-01-17T00:40:18.569Z,1.74
2018-01-17T00:40:22.577Z,1.75
2018-01-17T00:40:26.591Z,1.74
2018-01-17T00:40:30.727Z,1.74
2018-01-17T00:40:34.860Z,1.75
2018-01-17T00:40:38.769Z,1.75
2018-01-17T00:40:42.897Z,1.74
2018-01-17T00:40:46.801Z,1.76
2018-01-17T00:40:50.608Z,1.75
2018-01-17T00:40:54.526Z,1.76
2018-01-17T00:40:58.554Z,1.76
2018-01-17T00:41:02.520Z,1.76
2018-01-17T00:41:06.320Z,1.77
2018-01-17T00:41:10.030Z,1.78
2018-01-17T00:41:14.262Z,1.77
2018-01-17T00:41:18.381Z,1.76
2018-01-17T00:41:22.290Z,1.77
2018-01-17T00:41:26.210Z,1.77
2018-01-17T00:41:30.033Z,1.77
2018-01-17T00:41:33.954Z,1.77
2018-01-17T00:41:38.173Z,1.77
2018-01-17T00:41:41.966Z,1.78
2018-01-17T00:41:45.972Z,1.77
2018-01-17T00:42:21.789Z,1.78
2018-01-17T00:42:25.599Z,1.8
2018-01-17T00:42:29.717Z,1.8
2018-01-17T00:42:33.536Z,1.79
2018-01-17T00:42:37.334Z,1.8
2018-01-17T00:42:41.407Z,1.81
2018-01-17T00:42:45.412Z,1.81
2018-01-17T00:42:49.220Z,1.82
2018-01-17T00:42:53.379Z,1.82
2018-01-17T00:42:57.602Z,1.81
2018-01-17T00:43:01.512Z,1.82
2018-01-17T00:43:05.788Z,1.82
2018-01-17T00:43:09.957Z,1.82
2018-01-17T00:43:13.748Z,1.82
2018-01-17T00:43:17.763Z,1.82
2018-01-17T00:43:21.674Z,1.82
2018-01-17T00:43:25.484Z,1.84
2018-01-17T00:43:29.397Z,1.83
2018-01-17T00:43:33.421Z,1.82
2018-01-17T00:43:37.236Z,1.84
2018-01-17T00:43:41.338Z,1.83
2018-01-17T00:43:45.573Z,1.84
2018-01-17T00:43:49.498Z,1.84
2018-01-17T00:43:53.202Z,1.83
2018-01-17T00:43:57.327Z,1.83
2018-01-17T00:44:01.140Z,1.84
2018-01-17T00:44:05.118Z,1.84
2018-01-17T00:44:09.029Z,1.85
2018-01-17T00:44:12.836Z,1.85
2018-01-17T00:44:16.959Z,1.85
2018-01-17T00:44:21.073Z,1.84
2018-01-17T00:44:24.883Z,1.85
2018-01-17T00:44:28.591Z,1.85
2018-01-17T00:44:32.821Z,1.85
2018-01-17T00:44:36.716Z,1.85
2018-01-17T00:44:40.932Z,1.85
2018-01-17T00:44:44.935Z,1.85
2018-01-17T00:44:48.848Z,1.85
2018-01-17T00:44:52.872Z,1.86
2018-01-17T00:44:56.890Z,1.86
2018-01-17T00:45:00.905Z,1.86
2018-01-17T00:45:04.824Z,1.86
2018-01-17T00:45:08.842Z,1.87
2018-01-17T00:45:12.870Z,1.86
2018-01-17T00:45:16.999Z,1.86
2018-01-17T00:45:20.915Z,1.87
2018-01-17T00:45:24.829Z,1.87
2018-01-17T00:45:28.748Z,1.87
2018-01-17T00:45:32.660Z,1.87
2018-01-17T00:45:36.570Z,1.88
2018-01-17T00:45:40.693Z,1.87
2018-01-17T00:45:44.589Z,1.88
2018-01-17T00:45:48.304Z,1.87
2018-01-17T00:45:52.223Z,1.87
2018-01-17T00:45:56.137Z,1.88
2018-01-17T00:46:00.163Z,1.89
2018-01-17T00:46:04.456Z,1.89
2018-01-17T00:46:08.283Z,1.88
2018-01-17T00:46:12.396Z,1.89
2018-01-17T00:46:16.414Z,1.89
2018-01-17T00:46:20.533Z,1.89
2018-01-17T00:46:24.454Z,1.89
2018-01-17T00:46:28.581Z,1.89
2018-01-17T00:46:32.804Z,1.89
2018-01-17T00:46:36.603Z,1.9
2018-01-17T00:46:40.724Z,1.9
2018-01-17T00:46:44.646Z,1.9
2018-01-17T00:46:48.657Z,1.89
2018-01-17T00:46:52.681Z,1.9
2018-01-17T00:46:56.900Z,1.9
2018-01-17T00:47:00.594Z,1.91
2018-01-17T00:47:04.602Z,1.91
2018-01-17T00:47:08.423Z,1.9
2018-01-17T00:47:12.448Z,1.91
2018-01-17T00:47:16.460Z,1.89
2018-01-17T00:47:20.365Z,1.91
2018-01-17T00:47:24.174Z,1.91
2018-01-17T00:47:28.076Z,1.91
2018-01-17T00:47:32.089Z,1.91
2018-01-17T00:47:36.008Z,1.91
2018-01-17T00:47:39.926Z,1.91
2018-01-17T00:47:44.050Z,1.92
2018-01-17T00:47:47.949Z,1.92
2018-01-17T00:47:51.862Z,1.91
2018-01-17T00:47:55.870Z,1.92
2018-01-17T00:47:59.664Z,1.91
2018-01-17T00:48:03.939Z,1.91
2018-01-17T00:48:07.953Z,1.91
2018-01-17T00:48:11.982Z,1.92
2018-01-17T00:48:16.098Z,1.92
2018-01-17T00:48:20.013Z,1.92
2018-01-17T00:48:23.923Z,1.92
2018-01-17T00:48:27.832Z,1.92
2018-01-17T00:48:31.619Z,1.92
2018-01-17T00:48:35.640Z,1.92
2018-01-17T00:48:39.656Z,1.93
2018-01-17T00:48:43.468Z,1.92
2018-01-17T00:48:47.365Z,1.93
2018-01-17T00:48:51.372Z,1.93
2018-01-17T00:48:55.486Z,1.92
2018-01-17T00:48:59.508Z,1.93
2018-01-17T00:49:03.371Z,1.93
2018-01-17T00:49:07.490Z,1.92
2018-01-17T00:49:11.391Z,1.92
2018-01-17T00:49:15.408Z,1.92
2018-01-17T00:49:19.636Z,1.92
2018-01-17T00:49:23.750Z,1.92
2018-01-17T00:49:27.658Z,1.92
2018-01-17T00:49:31.682Z,1.92
2018-01-17T00:49:35.790Z,1.92
2018-01-17T00:49:39.789Z,1.92
2018-01-17T00:49:43.911Z,1.92
2018-01-17T00:49:47.816Z,1.93
2018-01-17T00:49:51.751Z,1.93
2018-01-17T00:49:55.863Z,1.93
2018-01-17T00:49:59.971Z,1.93
2018-01-17T00:50:03.771Z,1.93
2018-01-17T00:50:07.672Z,1.94
2018-01-17T00:50:11.583Z,1.93
2018-01-17T00:50:15.823Z,1.94
2018-01-17T00:50:19.835Z,1.94
2018-01-17T00:50:23.835Z,1.94
2018-01-17T00:50:27.800Z,1.94
2018-01-17T00:50:31.824Z,1.95
2018-01-17T00:50:35.617Z,1.94
2018-01-17T00:50:39.739Z,1.94
2018-01-17T00:50:43.756Z,1.94
2018-01-17T00:50:47.779Z,1.93
2018-01-17T00:50:51.584Z,1.93
2018-01-17T00:50:55.498Z,1.94
2018-01-17T00:50:59.296Z,1.94
2018-01-17T00:51:03.683Z,1.94
2018-01-17T00:51:07.595Z,1.94
2018-01-17T00:51:11.622Z,1.93
2018-01-17T00:51:15.653Z,1.94
2018-01-17T00:51:19.550Z,1.94
2018-01-17T00:51:23.453Z,1.95
2018-01-17T00:51:27.477Z,1.94
2018-01-17T00:51:31.603Z,1.95
2018-01-17T00:51:35.537Z,1.94
2018-01-17T00:51:39.461Z,1.95
2018-01-17T00:51:43.462Z,1.95
2018-01-17T00:51:47.475Z,1.95
2018-01-17T00:51:51.277Z,1.94
2018-01-17T00:51:55.194Z,1.94
2018-01-17T00:51:59.202Z,1.94
2018-01-17T00:52:03.199Z,1.95
2018-01-17T00:52:07.315Z,1.94
2018-01-17T00:52:11.336Z,1.94
2018-01-17T00:52:15.681Z,1.95
2018-01-17T00:52:19.592Z,1.95
2018-01-17T00:52:23.501Z,1.95
2018-01-17T00:52:27.468Z,1.95
2018-01-17T00:52:31.389Z,1.94
2018-01-17T00:52:35.174Z,1.94
2018-01-17T00:52:39.087Z,1.94
2018-01-17T00:52:42.891Z,1.96
2018-01-17T00:52:47.009Z,1.96
2018-01-17T00:52:50.714Z,1.95
2018-01-17T00:52:54.615Z,1.96
2018-01-17T00:52:58.430Z,1.96
2018-01-17T00:53:02.446Z,1.95
2018-01-17T00:53:06.271Z,1.95
2018-01-17T00:53:10.393Z,1.95
2018-01-17T00:53:14.524Z,1.95
2018-01-17T00:53:18.345Z,1.94
2018-01-17T00:53:22.380Z,1.95
2018-01-17T00:53:26.295Z,1.95
2018-01-17T00:53:30.107Z,1.95